sensor_id;sensor_type;location;lat;lon;timestamp;P1;durP1;ratioP1;P2;durP2;ratioP2
6463;SDS011;3265;42.694;23.282;2023-09-08T00:00:03;13.18;;;8.77;;
6463;SDS011;3265;42.694;23.282;2023-09-08T00:02:30;10.30;;;8.40;;
6463;SDS011;3265;42.694;23.282;2023-09-08T00:04:57;14.98;;;9.85;;
6463;SDS011;3265;42.694;23.282;2023-09-08T00:07:26;13.63;;;10.07;;
6463;SDS011;3265;42.694;23.282;2023-09-08T00:09:53;12.57;;;10.30;;
6463;SDS011;3265;42.694;23.282;2023-09-08T00:12:20;14.00;;;10.93;;
6463;SDS011;3265;42.694;23.282;2023-09-08T00:14:48;13.23;;;11.07;;
6463;SDS011;3265;42.694;23.282;2023-09-08T00:17:15;14.63;;;11.25;;
6463;SDS011;3265;42.694;23.282;2023-09-08T00:19:42;17.30;;;12.23;;
6463;SDS011;3265;42.694;23.282;2023-09-08T00:22:09;16.52;;;12.13;;
6463;SDS011;3265;42.694;23.282;2023-09-08T00:24:36;15.70;;;11.27;;
6463;SDS011;3265;42.694;23.282;2023-09-08T00:27:03;15.02;;;10.57;;
6463;SDS011;3265;42.694;23.282;2023-09-08T00:29:29;12.82;;;10.25;;
6463;SDS011;3265;42.694;23.282;2023-09-08T00:31:58;12.23;;;9.38;;
6463;SDS011;3265;42.694;23.282;2023-09-08T00:34:24;16.80;;;9.20;;
6463;SDS011;3265;42.694;23.282;2023-09-08T00:36:51;15.02;;;9.50;;
6463;SDS011;3265;42.694;23.282;2023-09-08T00:39:18;12.07;;;9.18;;
6463;SDS011;3265;42.694;23.282;2023-09-08T00:41:45;12.35;;;9.02;;
6463;SDS011;3265;42.694;23.282;2023-09-08T00:44:11;17.35;;;8.73;;
6463;SDS011;3265;42.694;23.282;2023-09-08T00:46:38;12.35;;;8.80;;
6463;SDS011;3265;42.694;23.282;2023-09-08T00:49:07;10.05;;;7.97;;
6463;SDS011;3265;42.694;23.282;2023-09-08T00:51:34;10.90;;;8.02;;
6463;SDS011;3265;42.694;23.282;2023-09-08T00:54:15;12.00;;;7.32;;
6463;SDS011;3265;42.694;23.282;2023-09-08T00:56:42;14.90;;;7.97;;
6463;SDS011;3265;42.694;23.282;2023-09-08T00:59:08;12.15;;;6.40;;
6463;SDS011;3265;42.694;23.282;2023-09-08T01:01:35;9.45;;;6.82;;
6463;SDS011;3265;42.694;23.282;2023-09-08T01:04:02;11.45;;;6.70;;
6463;SDS011;3265;42.694;23.282;2023-09-08T01:06:31;14.88;;;6.30;;
6463;SDS011;3265;42.694;23.282;2023-09-08T01:09:01;8.25;;;6.70;;
6463;SDS011;3265;42.694;23.282;2023-09-08T01:11:28;11.52;;;6.43;;
6463;SDS011;3265;42.694;23.282;2023-09-08T01:13:56;9.15;;;5.80;;
6463;SDS011;3265;42.694;23.282;2023-09-08T01:16:23;9.77;;;5.53;;
6463;SDS011;3265;42.694;23.282;2023-09-08T01:18:49;9.60;;;6.00;;
6463;SDS011;3265;42.694;23.282;2023-09-08T01:24:27;11.10;;;5.60;;
6463;SDS011;3265;42.694;23.282;2023-09-08T01:27:15;11.43;;;6.57;;
6463;SDS011;3265;42.694;23.282;2023-09-08T01:29:43;9.20;;;6.35;;
6463;SDS011;3265;42.694;23.282;2023-09-08T01:32:12;9.90;;;6.18;;
6463;SDS011;3265;42.694;23.282;2023-09-08T01:34:38;8.85;;;6.53;;
6463;SDS011;3265;42.694;23.282;2023-09-08T01:37:06;9.90;;;6.28;;
6463;SDS011;3265;42.694;23.282;2023-09-08T01:39:33;10.35;;;6.50;;
6463;SDS011;3265;42.694;23.282;2023-09-08T01:42:00;8.40;;;5.85;;
6463;SDS011;3265;42.694;23.282;2023-09-08T01:44:29;13.85;;;7.10;;
6463;SDS011;3265;42.694;23.282;2023-09-08T01:46:55;9.57;;;6.40;;
6463;SDS011;3265;42.694;23.282;2023-09-08T01:49:23;12.80;;;6.85;;
6463;SDS011;3265;42.694;23.282;2023-09-08T01:51:50;9.75;;;6.88;;
6463;SDS011;3265;42.694;23.282;2023-09-08T01:54:16;8.35;;;6.55;;
6463;SDS011;3265;42.694;23.282;2023-09-08T01:56:43;10.15;;;6.63;;
6463;SDS011;3265;42.694;23.282;2023-09-08T01:59:16;11.63;;;6.95;;
6463;SDS011;3265;42.694;23.282;2023-09-08T02:01:44;11.45;;;6.90;;
6463;SDS011;3265;42.694;23.282;2023-09-08T02:04:11;10.25;;;6.57;;
6463;SDS011;3265;42.694;23.282;2023-09-08T02:06:38;9.48;;;6.45;;
6463;SDS011;3265;42.694;23.282;2023-09-08T02:09:04;8.90;;;6.45;;
6463;SDS011;3265;42.694;23.282;2023-09-08T02:11:31;9.80;;;6.95;;
6463;SDS011;3265;42.694;23.282;2023-09-08T02:13:58;10.57;;;6.82;;
6463;SDS011;3265;42.694;23.282;2023-09-08T02:16:25;11.95;;;7.18;;
6463;SDS011;3265;42.694;23.282;2023-09-08T02:18:55;8.52;;;7.00;;
6463;SDS011;3265;42.694;23.282;2023-09-08T02:21:21;13.38;;;7.15;;
6463;SDS011;3265;42.694;23.282;2023-09-08T02:23:48;9.80;;;7.28;;
6463;SDS011;3265;42.694;23.282;2023-09-08T02:26:15;13.27;;;6.72;;
6463;SDS011;3265;42.694;23.282;2023-09-08T02:28:42;13.27;;;6.93;;
6463;SDS011;3265;42.694;23.282;2023-09-08T02:31:09;11.93;;;7.45;;
6463;SDS011;3265;42.694;23.282;2023-09-08T02:33:36;11.98;;;7.25;;
6463;SDS011;3265;42.694;23.282;2023-09-08T02:36:05;12.70;;;7.47;;
6463;SDS011;3265;42.694;23.282;2023-09-08T02:38:32;13.57;;;7.80;;
6463;SDS011;3265;42.694;23.282;2023-09-08T02:40:59;13.02;;;7.63;;
6463;SDS011;3265;42.694;23.282;2023-09-08T02:43:25;9.38;;;7.20;;
6463;SDS011;3265;42.694;23.282;2023-09-08T02:45:53;12.38;;;7.25;;
6463;SDS011;3265;42.694;23.282;2023-09-08T02:48:20;10.35;;;7.40;;
6463;SDS011;3265;42.694;23.282;2023-09-08T02:50:46;12.00;;;7.82;;
6463;SDS011;3265;42.694;23.282;2023-09-08T02:53:14;12.02;;;7.65;;
6463;SDS011;3265;42.694;23.282;2023-09-08T02:55:41;11.27;;;7.45;;
6463;SDS011;3265;42.694;23.282;2023-09-08T02:58:08;12.23;;;7.95;;
6463;SDS011;3265;42.694;23.282;2023-09-08T03:00:35;10.13;;;8.07;;
6463;SDS011;3265;42.694;23.282;2023-09-08T03:03:02;11.00;;;7.88;;
6463;SDS011;3265;42.694;23.282;2023-09-08T03:05:28;12.40;;;7.78;;
6463;SDS011;3265;42.694;23.282;2023-09-08T03:07:57;15.10;;;8.40;;
6463;SDS011;3265;42.694;23.282;2023-09-08T03:10:25;18.48;;;8.68;;
6463;SDS011;3265;42.694;23.282;2023-09-08T03:12:53;13.55;;;7.75;;
6463;SDS011;3265;42.694;23.282;2023-09-08T03:15:20;12.80;;;8.90;;
6463;SDS011;3265;42.694;23.282;2023-09-08T03:17:47;11.50;;;8.25;;
6463;SDS011;3265;42.694;23.282;2023-09-08T03:20:14;10.82;;;8.00;;
6463;SDS011;3265;42.694;23.282;2023-09-08T03:22:40;12.52;;;8.50;;
6463;SDS011;3265;42.694;23.282;2023-09-08T03:25:07;11.25;;;8.13;;
6463;SDS011;3265;42.694;23.282;2023-09-08T03:27:36;11.73;;;8.70;;
6463;SDS011;3265;42.694;23.282;2023-09-08T03:30:04;14.50;;;8.75;;
6463;SDS011;3265;42.694;23.282;2023-09-08T03:32:31;11.68;;;8.52;;
6463;SDS011;3265;42.694;23.282;2023-09-08T03:34:58;12.52;;;8.52;;
6463;SDS011;3265;42.694;23.282;2023-09-08T03:37:25;15.15;;;9.27;;
6463;SDS011;3265;42.694;23.282;2023-09-08T03:39:52;15.43;;;8.73;;
6463;SDS011;3265;42.694;23.282;2023-09-08T03:42:19;12.55;;;9.07;;
6463;SDS011;3265;42.694;23.282;2023-09-08T03:44:47;13.77;;;8.30;;
6463;SDS011;3265;42.694;23.282;2023-09-08T03:47:14;11.88;;;8.73;;
6463;SDS011;3265;42.694;23.282;2023-09-08T03:49:40;15.65;;;9.80;;
6463;SDS011;3265;42.694;23.282;2023-09-08T03:52:07;15.00;;;9.68;;
6463;SDS011;3265;42.694;23.282;2023-09-08T03:54:34;14.20;;;8.70;;
6463;SDS011;3265;42.694;23.282;2023-09-08T03:57:02;14.00;;;9.35;;
6463;SDS011;3265;42.694;23.282;2023-09-08T03:59:29;13.73;;;8.75;;
6463;SDS011;3265;42.694;23.282;2023-09-08T04:01:57;13.43;;;9.02;;
6463;SDS011;3265;42.694;23.282;2023-09-08T04:04:26;12.68;;;9.23;;
6463;SDS011;3265;42.694;23.282;2023-09-08T04:06:53;16.15;;;9.43;;
6463;SDS011;3265;42.694;23.282;2023-09-08T04:09:20;15.32;;;9.95;;
6463;SDS011;3265;42.694;23.282;2023-09-08T04:11:46;15.35;;;9.27;;
6463;SDS011;3265;42.694;23.282;2023-09-08T04:14:13;13.57;;;9.30;;
6463;SDS011;3265;42.694;23.282;2023-09-08T04:16:40;15.13;;;9.85;;
6463;SDS011;3265;42.694;23.282;2023-09-08T04:19:08;13.57;;;9.75;;
6463;SDS011;3265;42.694;23.282;2023-09-08T04:21:35;14.07;;;9.68;;
6463;SDS011;3265;42.694;23.282;2023-09-08T04:24:02;15.90;;;9.73;;
6463;SDS011;3265;42.694;23.282;2023-09-08T04:26:30;17.27;;;9.93;;
6463;SDS011;3265;42.694;23.282;2023-09-08T04:28:57;15.07;;;10.57;;
6463;SDS011;3265;42.694;23.282;2023-09-08T04:31:23;12.43;;;9.57;;
6463;SDS011;3265;42.694;23.282;2023-09-08T04:33:50;17.80;;;10.77;;
6463;SDS011;3265;42.694;23.282;2023-09-08T04:36:19;17.60;;;10.63;;
6463;SDS011;3265;42.694;23.282;2023-09-08T04:38:46;19.35;;;10.68;;
6463;SDS011;3265;42.694;23.282;2023-09-08T04:41:13;18.88;;;10.88;;
6463;SDS011;3265;42.694;23.282;2023-09-08T04:43:40;22.00;;;11.95;;
6463;SDS011;3265;42.694;23.282;2023-09-08T04:46:07;22.63;;;12.50;;
6463;SDS011;3265;42.694;23.282;2023-09-08T04:48:33;20.92;;;11.70;;
6463;SDS011;3265;42.694;23.282;2023-09-08T04:51:00;25.27;;;13.60;;
6463;SDS011;3265;42.694;23.282;2023-09-08T04:53:28;38.85;;;15.07;;
6463;SDS011;3265;42.694;23.282;2023-09-08T04:55:55;29.10;;;14.82;;
6463;SDS011;3265;42.694;23.282;2023-09-08T04:58:22;24.48;;;13.40;;
6463;SDS011;3265;42.694;23.282;2023-09-08T05:00:49;25.92;;;12.52;;
6463;SDS011;3265;42.694;23.282;2023-09-08T05:03:17;18.55;;;11.85;;
6463;SDS011;3265;42.694;23.282;2023-09-08T05:05:44;21.58;;;12.73;;
6463;SDS011;3265;42.694;23.282;2023-09-08T05:08:11;19.02;;;11.57;;
6463;SDS011;3265;42.694;23.282;2023-09-08T05:10:39;21.83;;;12.10;;
6463;SDS011;3265;42.694;23.282;2023-09-08T05:13:06;18.65;;;11.32;;
6463;SDS011;3265;42.694;23.282;2023-09-08T05:15:33;21.88;;;12.02;;
6463;SDS011;3265;42.694;23.282;2023-09-08T05:18:00;19.67;;;11.95;;
6463;SDS011;3265;42.694;23.282;2023-09-08T05:20:26;20.90;;;10.85;;
6463;SDS011;3265;42.694;23.282;2023-09-08T05:22:59;17.67;;;10.65;;
6463;SDS011;3265;42.694;23.282;2023-09-08T05:25:27;20.95;;;11.38;;
6463;SDS011;3265;42.694;23.282;2023-09-08T05:27:58;18.92;;;10.75;;
6463;SDS011;3265;42.694;23.282;2023-09-08T05:30:27;14.85;;;9.98;;
6463;SDS011;3265;42.694;23.282;2023-09-08T05:32:55;12.95;;;10.25;;
6463;SDS011;3265;42.694;23.282;2023-09-08T05:35:22;16.30;;;10.57;;
6463;SDS011;3265;42.694;23.282;2023-09-08T05:37:49;16.02;;;9.73;;
6463;SDS011;3265;42.694;23.282;2023-09-08T05:40:16;17.38;;;10.23;;
6463;SDS011;3265;42.694;23.282;2023-09-08T05:42:42;11.50;;;9.27;;
6463;SDS011;3265;42.694;23.282;2023-09-08T05:45:10;15.95;;;9.13;;
6463;SDS011;3265;42.694;23.282;2023-09-08T05:47:37;13.00;;;9.02;;
6463;SDS011;3265;42.694;23.282;2023-09-08T05:50:03;10.30;;;8.77;;
6463;SDS011;3265;42.694;23.282;2023-09-08T05:52:31;12.82;;;7.88;;
6463;SDS011;3265;42.694;23.282;2023-09-08T05:54:58;13.05;;;7.63;;
6463;SDS011;3265;42.694;23.282;2023-09-08T05:57:25;10.35;;;7.80;;
6463;SDS011;3265;42.694;23.282;2023-09-08T05:59:55;17.58;;;8.57;;
6463;SDS011;3265;42.694;23.282;2023-09-08T06:02:23;15.02;;;8.13;;
6463;SDS011;3265;42.694;23.282;2023-09-08T06:04:50;13.70;;;8.50;;
6463;SDS011;3265;42.694;23.282;2023-09-08T06:07:17;12.68;;;7.75;;
6463;SDS011;3265;42.694;23.282;2023-09-08T06:09:43;15.70;;;7.82;;
6463;SDS011;3265;42.694;23.282;2023-09-08T06:12:10;14.25;;;6.97;;
6463;SDS011;3265;42.694;23.282;2023-09-08T06:14:37;14.18;;;6.65;;
6463;SDS011;3265;42.694;23.282;2023-09-08T06:17:04;10.00;;;6.60;;
6463;SDS011;3265;42.694;23.282;2023-09-08T06:19:32;10.70;;;6.60;;
6463;SDS011;3265;42.694;23.282;2023-09-08T06:21:59;9.75;;;6.35;;
6463;SDS011;3265;42.694;23.282;2023-09-08T06:24:25;11.38;;;6.32;;
6463;SDS011;3265;42.694;23.282;2023-09-08T06:26:53;8.30;;;5.65;;
6463;SDS011;3265;42.694;23.282;2023-09-08T06:29:19;10.10;;;5.97;;
6463;SDS011;3265;42.694;23.282;2023-09-08T06:31:46;11.95;;;6.13;;
6463;SDS011;3265;42.694;23.282;2023-09-08T06:34:13;11.52;;;6.38;;
6463;SDS011;3265;42.694;23.282;2023-09-08T06:36:41;12.70;;;6.20;;
6463;SDS011;3265;42.694;23.282;2023-09-08T06:39:08;12.20;;;5.60;;
6463;SDS011;3265;42.694;23.282;2023-09-08T06:41:36;12.30;;;5.20;;
6463;SDS011;3265;42.694;23.282;2023-09-08T06:44:04;9.18;;;5.43;;
6463;SDS011;3265;42.694;23.282;2023-09-08T06:46:31;12.95;;;5.25;;
6463;SDS011;3265;42.694;23.282;2023-09-08T06:48:59;14.60;;;5.82;;
6463;SDS011;3265;42.694;23.282;2023-09-08T06:51:28;10.27;;;5.00;;
6463;SDS011;3265;42.694;23.282;2023-09-08T06:53:56;7.70;;;4.93;;
6463;SDS011;3265;42.694;23.282;2023-09-08T06:56:25;10.00;;;4.53;;
6463;SDS011;3265;42.694;23.282;2023-09-08T06:58:52;9.18;;;5.05;;
6463;SDS011;3265;42.694;23.282;2023-09-08T07:01:22;8.27;;;5.00;;
6463;SDS011;3265;42.694;23.282;2023-09-08T07:03:49;10.43;;;5.18;;
6463;SDS011;3265;42.694;23.282;2023-09-08T07:06:16;7.40;;;4.70;;
6463;SDS011;3265;42.694;23.282;2023-09-08T07:08:48;11.82;;;4.45;;
6463;SDS011;3265;42.694;23.282;2023-09-08T07:11:17;7.07;;;4.45;;
6463;SDS011;3265;42.694;23.282;2023-09-08T07:13:43;9.18;;;4.50;;
6463;SDS011;3265;42.694;23.282;2023-09-08T07:16:10;7.15;;;4.63;;
6463;SDS011;3265;42.694;23.282;2023-09-08T07:18:37;7.18;;;4.63;;
6463;SDS011;3265;42.694;23.282;2023-09-08T07:21:04;11.80;;;4.63;;
6463;SDS011;3265;42.694;23.282;2023-09-08T07:23:31;10.63;;;5.10;;
6463;SDS011;3265;42.694;23.282;2023-09-08T07:26:00;9.10;;;4.20;;
6463;SDS011;3265;42.694;23.282;2023-09-08T07:28:28;6.07;;;4.25;;
6463;SDS011;3265;42.694;23.282;2023-09-08T07:31:00;8.45;;;4.47;;
6463;SDS011;3265;42.694;23.282;2023-09-08T07:33:27;8.30;;;5.80;;
6463;SDS011;3265;42.694;23.282;2023-09-08T07:35:54;7.28;;;4.32;;
6463;SDS011;3265;42.694;23.282;2023-09-08T07:38:21;10.38;;;4.40;;
6463;SDS011;3265;42.694;23.282;2023-09-08T07:40:48;9.93;;;4.30;;
6463;SDS011;3265;42.694;23.282;2023-09-08T07:43:15;5.97;;;4.65;;
6463;SDS011;3265;42.694;23.282;2023-09-08T07:45:43;11.05;;;4.43;;
6463;SDS011;3265;42.694;23.282;2023-09-08T07:48:10;5.35;;;4.15;;
6463;SDS011;3265;42.694;23.282;2023-09-08T07:50:37;11.05;;;4.57;;
6463;SDS011;3265;42.694;23.282;2023-09-08T07:53:04;10.75;;;3.95;;
6463;SDS011;3265;42.694;23.282;2023-09-08T07:55:31;5.15;;;4.35;;
6463;SDS011;3265;42.694;23.282;2023-09-08T07:58:00;5.93;;;4.40;;
6463;SDS011;3265;42.694;23.282;2023-09-08T08:00:28;10.15;;;5.00;;
6463;SDS011;3265;42.694;23.282;2023-09-08T08:02:57;10.18;;;5.07;;
6463;SDS011;3265;42.694;23.282;2023-09-08T08:05:24;7.80;;;4.85;;
6463;SDS011;3265;42.694;23.282;2023-09-08T08:07:51;6.18;;;4.45;;
6463;SDS011;3265;42.694;23.282;2023-09-08T08:10:19;6.38;;;4.53;;
6463;SDS011;3265;42.694;23.282;2023-09-08T08:12:46;8.35;;;4.90;;
6463;SDS011;3265;42.694;23.282;2023-09-08T08:15:33;9.80;;;4.43;;
6463;SDS011;3265;42.694;23.282;2023-09-08T08:18:03;9.73;;;5.78;;
6463;SDS011;3265;42.694;23.282;2023-09-08T08:20:30;7.22;;;4.88;;
6463;SDS011;3265;42.694;23.282;2023-09-08T08:22:59;11.77;;;4.55;;
6463;SDS011;3265;42.694;23.282;2023-09-08T08:25:27;7.65;;;4.30;;
6463;SDS011;3265;42.694;23.282;2023-09-08T08:27:54;7.45;;;4.20;;
6463;SDS011;3265;42.694;23.282;2023-09-08T08:30:21;8.35;;;4.63;;
6463;SDS011;3265;42.694;23.282;2023-09-08T08:32:48;5.28;;;4.40;;
6463;SDS011;3265;42.694;23.282;2023-09-08T08:35:17;9.98;;;4.60;;
6463;SDS011;3265;42.694;23.282;2023-09-08T08:37:44;11.13;;;4.70;;
6463;SDS011;3265;42.694;23.282;2023-09-08T08:40:12;5.97;;;4.70;;
6463;SDS011;3265;42.694;23.282;2023-09-08T08:42:39;11.85;;;4.78;;
6463;SDS011;3265;42.694;23.282;2023-09-08T08:45:07;10.52;;;4.30;;
6463;SDS011;3265;42.694;23.282;2023-09-08T08:47:34;10.10;;;4.60;;
6463;SDS011;3265;42.694;23.282;2023-09-08T08:50:01;7.85;;;4.78;;
6463;SDS011;3265;42.694;23.282;2023-09-08T08:52:30;6.63;;;4.63;;
6463;SDS011;3265;42.694;23.282;2023-09-08T08:54:59;6.63;;;4.15;;
6463;SDS011;3265;42.694;23.282;2023-09-08T08:57:26;7.70;;;4.57;;
6463;SDS011;3265;42.694;23.282;2023-09-08T08:59:53;6.70;;;4.30;;
6463;SDS011;3265;42.694;23.282;2023-09-08T09:02:21;9.27;;;4.70;;
6463;SDS011;3265;42.694;23.282;2023-09-08T09:04:48;8.48;;;4.47;;
6463;SDS011;3265;42.694;23.282;2023-09-08T09:07:15;7.30;;;4.88;;
6463;SDS011;3265;42.694;23.282;2023-09-08T09:09:46;8.52;;;4.00;;
6463;SDS011;3265;42.694;23.282;2023-09-08T09:12:16;10.15;;;4.20;;
6463;SDS011;3265;42.694;23.282;2023-09-08T09:14:44;6.93;;;4.28;;
6463;SDS011;3265;42.694;23.282;2023-09-08T09:17:13;7.43;;;4.43;;
6463;SDS011;3265;42.694;23.282;2023-09-08T09:19:40;8.50;;;4.40;;
6463;SDS011;3265;42.694;23.282;2023-09-08T09:22:07;5.18;;;4.10;;
6463;SDS011;3265;42.694;23.282;2023-09-08T09:24:35;8.52;;;4.35;;
6463;SDS011;3265;42.694;23.282;2023-09-08T09:27:07;8.00;;;4.57;;
6463;SDS011;3265;42.694;23.282;2023-09-08T09:29:35;7.38;;;4.40;;
6463;SDS011;3265;42.694;23.282;2023-09-08T09:32:10;4.95;;;4.32;;
6463;SDS011;3265;42.694;23.282;2023-09-08T09:34:40;6.78;;;4.70;;
6463;SDS011;3265;42.694;23.282;2023-09-08T09:37:14;7.05;;;4.57;;
6463;SDS011;3265;42.694;23.282;2023-09-08T09:39:41;8.40;;;4.45;;
6463;SDS011;3265;42.694;23.282;2023-09-08T09:42:09;8.75;;;4.93;;
6463;SDS011;3265;42.694;23.282;2023-09-08T09:44:36;6.25;;;4.55;;
6463;SDS011;3265;42.694;23.282;2023-09-08T09:47:03;8.20;;;5.18;;
6463;SDS011;3265;42.694;23.282;2023-09-08T09:49:32;6.53;;;4.20;;
6463;SDS011;3265;42.694;23.282;2023-09-08T09:52:08;5.30;;;4.25;;
6463;SDS011;3265;42.694;23.282;2023-09-08T09:54:38;9.77;;;4.40;;
6463;SDS011;3265;42.694;23.282;2023-09-08T09:57:05;10.68;;;4.35;;
6463;SDS011;3265;42.694;23.282;2023-09-08T09:59:37;8.05;;;4.45;;
6463;SDS011;3265;42.694;23.282;2023-09-08T10:02:07;10.98;;;4.75;;
6463;SDS011;3265;42.694;23.282;2023-09-08T10:04:38;5.60;;;4.38;;
6463;SDS011;3265;42.694;23.282;2023-09-08T10:07:06;8.93;;;5.03;;
6463;SDS011;3265;42.694;23.282;2023-09-08T10:09:35;12.75;;;4.93;;
6463;SDS011;3265;42.694;23.282;2023-09-08T10:12:03;16.13;;;4.93;;
6463;SDS011;3265;42.694;23.282;2023-09-08T10:14:31;8.20;;;4.60;;
6463;SDS011;3265;42.694;23.282;2023-09-08T10:17:03;6.78;;;4.45;;
6463;SDS011;3265;42.694;23.282;2023-09-08T10:19:34;8.60;;;4.40;;
6463;SDS011;3265;42.694;23.282;2023-09-08T10:22:06;7.07;;;4.65;;
6463;SDS011;3265;42.694;23.282;2023-09-08T10:24:38;9.60;;;4.70;;
6463;SDS011;3265;42.694;23.282;2023-09-08T10:27:08;6.32;;;4.70;;
6463;SDS011;3265;42.694;23.282;2023-09-08T10:29:38;9.75;;;4.70;;
6463;SDS011;3265;42.694;23.282;2023-09-08T10:32:08;9.63;;;4.90;;
6463;SDS011;3265;42.694;23.282;2023-09-08T10:34:38;8.32;;;4.53;;
6463;SDS011;3265;42.694;23.282;2023-09-08T10:37:18;10.20;;;4.80;;
6463;SDS011;3265;42.694;23.282;2023-09-08T10:39:45;8.20;;;4.80;;
6463;SDS011;3265;42.694;23.282;2023-09-08T10:42:26;6.60;;;4.82;;
6463;SDS011;3265;42.694;23.282;2023-09-08T10:45:13;10.30;;;4.97;;
6463;SDS011;3265;42.694;23.282;2023-09-08T10:47:55;7.72;;;4.75;;
6463;SDS011;3265;42.694;23.282;2023-09-08T10:50:26;6.82;;;4.82;;
6463;SDS011;3265;42.694;23.282;2023-09-08T10:53:09;9.32;;;4.82;;
6463;SDS011;3265;42.694;23.282;2023-09-08T10:55:42;10.32;;;4.70;;
6463;SDS011;3265;42.694;23.282;2023-09-08T10:58:22;5.45;;;4.22;;
6463;SDS011;3265;42.694;23.282;2023-09-08T11:01:02;5.90;;;4.13;;
6463;SDS011;3265;42.694;23.282;2023-09-08T11:06:18;7.53;;;4.50;;
6463;SDS011;3265;42.694;23.282;2023-09-08T11:09:12;5.72;;;4.40;;
6463;SDS011;3265;42.694;23.282;2023-09-08T11:11:39;5.07;;;4.28;;
6463;SDS011;3265;42.694;23.282;2023-09-08T11:14:15;9.45;;;4.88;;
6463;SDS011;3265;42.694;23.282;2023-09-08T11:16:42;6.32;;;4.40;;
6463;SDS011;3265;42.694;23.282;2023-09-08T11:19:16;8.00;;;4.93;;
6463;SDS011;3265;42.694;23.282;2023-09-08T11:21:58;5.47;;;4.63;;
6463;SDS011;3265;42.694;23.282;2023-09-08T11:24:33;4.50;;;4.05;;
6463;SDS011;3265;42.694;23.282;2023-09-08T11:27:02;6.82;;;4.53;;
6463;SDS011;3265;42.694;23.282;2023-09-08T11:29:31;6.65;;;4.45;;
6463;SDS011;3265;42.694;23.282;2023-09-08T11:31:58;6.40;;;4.25;;
6463;SDS011;3265;42.694;23.282;2023-09-08T11:34:36;5.05;;;4.55;;
6463;SDS011;3265;42.694;23.282;2023-09-08T11:37:05;7.50;;;4.35;;
6463;SDS011;3265;42.694;23.282;2023-09-08T11:39:37;13.07;;;4.55;;
6463;SDS011;3265;42.694;23.282;2023-09-08T11:42:04;12.00;;;4.38;;
6463;SDS011;3265;42.694;23.282;2023-09-08T11:44:32;12.23;;;4.40;;
6463;SDS011;3265;42.694;23.282;2023-09-08T11:47:01;7.55;;;4.60;;
6463;SDS011;3265;42.694;23.282;2023-09-08T11:49:37;7.53;;;4.30;;
6463;SDS011;3265;42.694;23.282;2023-09-08T11:52:12;7.43;;;4.63;;
6463;SDS011;3265;42.694;23.282;2023-09-08T11:54:42;7.60;;;4.10;;
6463;SDS011;3265;42.694;23.282;2023-09-08T11:57:09;4.85;;;4.25;;
6463;SDS011;3265;42.694;23.282;2023-09-08T11:59:38;10.45;;;4.72;;
6463;SDS011;3265;42.694;23.282;2023-09-08T12:02:08;9.95;;;4.25;;
6463;SDS011;3265;42.694;23.282;2023-09-08T12:04:39;11.77;;;4.55;;
6463;SDS011;3265;42.694;23.282;2023-09-08T12:07:07;7.35;;;5.03;;
6463;SDS011;3265;42.694;23.282;2023-09-08T12:09:39;7.07;;;4.70;;
6463;SDS011;3265;42.694;23.282;2023-09-08T12:18:13;9.07;;;4.43;;
6463;SDS011;3265;42.694;23.282;2023-09-08T12:21:02;8.57;;;4.25;;
6463;SDS011;3265;42.694;23.282;2023-09-08T12:23:29;7.63;;;4.35;;
6463;SDS011;3265;42.694;23.282;2023-09-08T12:25:58;8.80;;;4.50;;
6463;SDS011;3265;42.694;23.282;2023-09-08T12:28:25;6.45;;;4.30;;
6463;SDS011;3265;42.694;23.282;2023-09-08T12:30:57;7.55;;;4.32;;
6463;SDS011;3265;42.694;23.282;2023-09-08T12:33:26;6.50;;;3.90;;
6463;SDS011;3265;42.694;23.282;2023-09-08T12:35:55;6.43;;;4.30;;
6463;SDS011;3265;42.694;23.282;2023-09-08T12:38:21;11.02;;;4.63;;
6463;SDS011;3265;42.694;23.282;2023-09-08T12:40:51;4.90;;;4.10;;
6463;SDS011;3265;42.694;23.282;2023-09-08T12:43:18;4.85;;;4.07;;
6463;SDS011;3265;42.694;23.282;2023-09-08T12:45:45;12.35;;;4.30;;
6463;SDS011;3265;42.694;23.282;2023-09-08T12:48:12;5.95;;;4.55;;
6463;SDS011;3265;42.694;23.282;2023-09-08T12:50:41;8.50;;;4.15;;
6463;SDS011;3265;42.694;23.282;2023-09-08T12:53:09;12.18;;;4.47;;
6463;SDS011;3265;42.694;23.282;2023-09-08T12:55:36;5.70;;;4.07;;
6463;SDS011;3265;42.694;23.282;2023-09-08T12:58:03;9.10;;;4.60;;
6463;SDS011;3265;42.694;23.282;2023-09-08T13:00:30;7.97;;;4.30;;
6463;SDS011;3265;42.694;23.282;2023-09-08T13:02:56;6.15;;;4.07;;
6463;SDS011;3265;42.694;23.282;2023-09-08T13:05:23;9.75;;;4.10;;
6463;SDS011;3265;42.694;23.282;2023-09-08T13:07:50;9.32;;;4.70;;
6463;SDS011;3265;42.694;23.282;2023-09-08T13:10:26;7.38;;;4.30;;
6463;SDS011;3265;42.694;23.282;2023-09-08T13:12:53;6.03;;;4.15;;
6463;SDS011;3265;42.694;23.282;2023-09-08T13:15:19;7.30;;;4.35;;
6463;SDS011;3265;42.694;23.282;2023-09-08T13:17:46;5.40;;;4.10;;
6463;SDS011;3265;42.694;23.282;2023-09-08T13:20:13;9.82;;;5.15;;
6463;SDS011;3265;42.694;23.282;2023-09-08T13:22:40;7.35;;;4.53;;
6463;SDS011;3265;42.694;23.282;2023-09-08T13:25:07;13.00;;;4.80;;
6463;SDS011;3265;42.694;23.282;2023-09-08T13:27:36;9.35;;;5.13;;
6463;SDS011;3265;42.694;23.282;2023-09-08T13:30:07;5.97;;;4.30;;
6463;SDS011;3265;42.694;23.282;2023-09-08T13:32:35;8.25;;;4.47;;
6463;SDS011;3265;42.694;23.282;2023-09-08T13:35:02;9.23;;;4.72;;
6463;SDS011;3265;42.694;23.282;2023-09-08T13:37:29;5.30;;;4.40;;
6463;SDS011;3265;42.694;23.282;2023-09-08T13:39:56;5.85;;;4.40;;
6463;SDS011;3265;42.694;23.282;2023-09-08T13:42:23;11.65;;;5.88;;
6463;SDS011;3265;42.694;23.282;2023-09-08T13:44:51;6.93;;;4.72;;
6463;SDS011;3265;42.694;23.282;2023-09-08T13:47:20;8.82;;;5.13;;
6463;SDS011;3265;42.694;23.282;2023-09-08T13:49:47;6.75;;;4.45;;
6463;SDS011;3265;42.694;23.282;2023-09-08T13:52:14;8.68;;;4.45;;
6463;SDS011;3265;42.694;23.282;2023-09-08T13:54:40;8.45;;;4.68;;
6463;SDS011;3265;42.694;23.282;2023-09-08T13:57:08;6.07;;;4.47;;
6463;SDS011;3265;42.694;23.282;2023-09-08T13:59:35;6.50;;;4.22;;
6463;SDS011;3265;42.694;23.282;2023-09-08T14:02:03;6.82;;;4.18;;
6463;SDS011;3265;42.694;23.282;2023-09-08T14:04:30;6.90;;;4.45;;
6463;SDS011;3265;42.694;23.282;2023-09-08T14:06:57;5.97;;;4.50;;
6463;SDS011;3265;42.694;23.282;2023-09-08T14:09:24;8.95;;;4.50;;
6463;SDS011;3265;42.694;23.282;2023-09-08T14:11:52;5.78;;;4.28;;
6463;SDS011;3265;42.694;23.282;2023-09-08T14:14:19;6.05;;;4.40;;
6463;SDS011;3265;42.694;23.282;2023-09-08T14:16:46;6.18;;;5.00;;
6463;SDS011;3265;42.694;23.282;2023-09-08T14:19:14;9.00;;;5.00;;
6463;SDS011;3265;42.694;23.282;2023-09-08T14:21:41;6.28;;;4.32;;
6463;SDS011;3265;42.694;23.282;2023-09-08T14:24:08;8.05;;;5.40;;
6463;SDS011;3265;42.694;23.282;2023-09-08T14:26:36;13.13;;;4.70;;
6463;SDS011;3265;42.694;23.282;2023-09-08T14:29:02;11.63;;;4.95;;
6463;SDS011;3265;42.694;23.282;2023-09-08T14:31:29;10.82;;;4.97;;
6463;SDS011;3265;42.694;23.282;2023-09-08T14:33:57;5.78;;;4.72;;
6463;SDS011;3265;42.694;23.282;2023-09-08T14:36:25;7.22;;;4.38;;
6463;SDS011;3265;42.694;23.282;2023-09-08T14:38:52;7.63;;;4.15;;
6463;SDS011;3265;42.694;23.282;2023-09-08T14:41:20;7.28;;;4.40;;
6463;SDS011;3265;42.694;23.282;2023-09-08T14:43:46;8.65;;;4.22;;
6463;SDS011;3265;42.694;23.282;2023-09-08T14:46:13;6.18;;;4.35;;
6463;SDS011;3265;42.694;23.282;2023-09-08T14:48:44;6.00;;;4.30;;
6463;SDS011;3265;42.694;23.282;2023-09-08T14:51:11;7.95;;;4.38;;
6463;SDS011;3265;42.694;23.282;2023-09-08T14:53:39;5.55;;;4.32;;
6463;SDS011;3265;42.694;23.282;2023-09-08T14:56:06;7.70;;;4.28;;
6463;SDS011;3265;42.694;23.282;2023-09-08T14:58:33;5.93;;;4.15;;
6463;SDS011;3265;42.694;23.282;2023-09-08T15:01:00;8.63;;;4.25;;
6463;SDS011;3265;42.694;23.282;2023-09-08T15:03:32;11.55;;;4.80;;
6463;SDS011;3265;42.694;23.282;2023-09-08T15:05:59;4.95;;;4.10;;
6463;SDS011;3265;42.694;23.282;2023-09-08T15:08:27;8.52;;;4.10;;
6463;SDS011;3265;42.694;23.282;2023-09-08T15:10:56;7.25;;;4.43;;